Time;durP1;ratioP1;P1;durP2;ratioP2;P2;SDS_P1;SDS_P2;PMS_P1;PMS_P2;Temp;Humidity;BMP_temperature;BMP_pressure;BME280_temperature;BME280_humidity;BME280_pressure;Samples;Min_cycle;Max_cycle;Signal;HPM_P1;HPM_P2
2022/09/13 00:00:11;;;;;;;0.00;0.00;;;14.00;99.90;;;;;;5028175;28;20233;-75
2022/09/13 00:02:38;;;;;;;0.10;0.10;;;14.00;99.90;;;;;;5030517;28;20568;-75
2022/09/13 00:05:07;;;;;;;0.10;0.10;;;14.00;99.90;;;;;;5026759;28;20306;-75
2022/09/13 00:07:34;;;;;;;0.00;0.00;;;14.10;99.90;;;;;;5019554;28;20215;-75
2022/09/13 00:10:02;;;;;;;0.00;0.00;;;14.10;99.90;;;;;;5031327;28;20234;-75
2022/09/13 00:12:31;;;;;;;0.00;0.00;;;14.10;99.90;;;;;;5014094;28;20628;-75
2022/09/13 00:14:59;;;;;;;0.00;0.00;;;14.10;99.90;;;;;;5011467;28;20827;-75
2022/09/13 00:17:27;;;;;;;0.10;0.10;;;14.10;99.90;;;;;;5011291;28;20215;-75
2022/09/13 00:19:55;;;;;;;0.00;0.00;;;14.10;99.90;;;;;;5011864;28;20604;-75
2022/09/13 00:22:22;;;;;;;0.00;0.00;;;14.10;99.90;;;;;;5026695;28;20195;-75
2022/09/13 00:24:50;;;;;;;0.10;0.10;;;14.20;99.90;;;;;;5031173;28;20235;-75
2022/09/13 00:27:18;;;;;;;0.00;0.00;;;14.10;99.90;;;;;;5030172;28;20253;-76
2022/09/13 00:29:47;;;;;;;0.00;0.00;;;14.10;99.90;;;;;;5013400;28;20264;-76
2022/09/13 00:32:15;;;;;;;0.05;0.05;;;14.10;99.90;;;;;;5014741;28;20207;-75
2022/09/13 00:34:43;;;;;;;0.00;0.00;;;14.00;99.90;;;;;;5042534;22;20237;-76
2022/09/13 00:37:11;;;;;;;0.00;0.00;;;14.00;99.90;;;;;;5050705;28;20260;-75
2022/09/13 00:39:39;;;;;;;0.10;0.10;;;14.00;99.90;;;;;;5050513;28;20672;-75
2022/09/13 00:42:10;;;;;;;0.10;0.10;;;14.00;99.90;;;;;;5050869;28;20280;-75
2022/09/13 00:44:57;;;;;;;0.00;0.00;;;14.00;99.90;;;;;;5051012;28;20219;-75
2022/09/13 00:47:32;;;;;;;0.00;0.00;;;13.90;99.90;;;;;;5045217;28;20539;-76
2022/09/13 00:50:06;;;;;;;0.00;0.00;;;14.00;99.90;;;;;;5036092;28;20226;-76
2022/09/13 00:52:36;;;;;;;0.10;0.10;;;14.00;99.90;;;;;;5046656;28;20206;-76
2022/09/13 00:55:11;;;;;;;0.00;0.00;;;14.00;99.90;;;;;;5063023;28;20218;-76
2022/09/13 00:57:40;;;;;;;0.10;0.10;;;14.00;99.90;;;;;;5061313;28;20209;-77
2022/09/13 01:00:12;;;;;;;0.10;0.10;;;13.90;99.90;;;;;;5062050;28;20207;-76
2022/09/13 01:02:45;;;;;;;0.00;0.00;;;13.90;99.90;;;;;;5035795;28;20234;-76
2022/09/13 01:05:15;;;;;;;0.10;0.10;;;13.80;99.90;;;;;;5035468;28;20261;-76
2022/09/13 01:07:43;;;;;;;0.00;0.00;;;13.90;99.90;;;;;;5044929;28;20194;-77
2022/09/13 01:10:12;;;;;;;0.05;0.05;;;13.90;99.90;;;;;;5038656;28;20202;-76
2022/09/13 01:12:45;;;;;;;0.00;0.00;;;13.80;99.90;;;;;;5036219;28;20191;-76
2022/09/13 01:15:14;;;;;;;0.00;0.00;;;13.80;99.90;;;;;;5039684;28;20276;-76
2022/09/13 01:17:44;;;;;;;0.00;0.00;;;13.80;99.90;;;;;;5052985;28;20199;-76
2022/09/13 01:20:13;;;;;;;0.00;0.00;;;13.80;99.90;;;;;;5036125;28;20665;-75
2022/09/13 01:23:01;;;;;;;0.10;0.10;;;13.80;99.90;;;;;;5053137;28;20621;-75
2022/09/13 01:25:55;;;;;;;0.00;0.00;;;13.80;99.90;;;;;;5055049;28;20252;-76
2022/09/13 01:28:40;;;;;;;0.00;0.00;;;13.80;99.90;;;;;;5040187;28;20195;-76
2022/09/13 01:31:18;;;;;;;0.00;0.00;;;13.70;99.90;;;;;;5041878;28;20298;-75
2022/09/13 01:33:59;;;;;;;0.10;0.10;;;13.70;99.90;;;;;;5056152;28;20198;-76
2022/09/13 01:36:54;;;;;;;0.10;0.10;;;13.60;99.90;;;;;;5037481;28;20222;-76
2022/09/13 01:39:32;;;;;;;0.10;0.10;;;13.50;99.90;;;;;;5034930;28;20484;-76
2022/09/13 01:42:13;;;;;;;0.10;0.10;;;13.50;99.90;;;;;;5045120;28;20252;-76
2022/09/13 01:44:57;;;;;;;0.10;0.10;;;13.50;99.90;;;;;;5053296;28;20214;-76
2022/09/13 01:47:29;;;;;;;0.10;0.10;;;13.40;99.90;;;;;;5035321;28;20210;-76
2022/09/13 01:50:07;;;;;;;0.10;0.10;;;13.40;99.90;;;;;;5053827;28;20198;-76
2022/09/13 01:52:44;;;;;;;0.05;0.05;;;13.40;99.90;;;;;;5036834;28;20199;-75
2022/09/13 01:55:23;;;;;;;0.00;0.00;;;13.40;99.90;;;;;;5035063;28;20242;-75
2022/09/13 01:57:57;;;;;;;0.10;0.10;;;13.40;99.90;;;;;;5032645;28;20191;-76
2022/09/13 02:00:26;;;;;;;0.00;0.00;;;13.40;99.90;;;;;;5032193;28;20662;-75
2022/09/13 02:03:03;;;;;;;0.10;0.10;;;13.40;99.90;;;;;;5033058;28;20210;-76
2022/09/13 02:05:36;;;;;;;0.05;0.05;;;13.30;99.90;;;;;;5033128;28;20607;-76
2022/09/13 02:08:08;;;;;;;0.10;0.10;;;13.40;99.90;;;;;;5032968;28;20202;-76
2022/09/13 02:10:41;;;;;;;0.10;0.10;;;13.40;99.90;;;;;;5034271;28;20245;-76
2022/09/13 02:13:14;;;;;;;0.10;0.10;;;13.40;99.90;;;;;;5052774;28;20782;-77
2022/09/13 02:15:45;;;;;;;0.10;0.10;;;13.40;99.90;;;;;;5035127;28;20644;-76
2022/09/13 02:18:19;;;;;;;0.00;0.00;;;13.40;99.90;;;;;;5052866;28;20585;-76
2022/09/13 02:20:51;;;;;;;0.08;0.08;;;13.30;99.90;;;;;;5050550;28;20206;-76
2022/09/13 02:23:26;;;;;;;0.00;0.00;;;13.40;99.90;;;;;;5033551;28;20195;-76
2022/09/13 02:25:55;;;;;;;0.03;0.03;;;13.40;99.90;;;;;;5034430;28;20222;-76
2022/09/13 02:28:30;;;;;;;0.10;0.10;;;13.40;99.90;;;;;;5033926;28;20199;-76
2022/09/13 02:31:01;;;;;;;0.00;0.00;;;13.40;99.90;;;;;;5035284;28;20209;-76
2022/09/13 02:33:33;;;;;;;0.10;0.10;;;13.40;99.90;;;;;;5037049;28;20210;-78
2022/09/13 02:36:05;;;;;;;0.00;0.00;;;13.40;99.90;;;;;;5036525;28;20222;-78
2022/09/13 02:38:38;;;;;;;0.00;0.00;;;13.40;99.90;;;;;;5022922;28;20211;-77
2022/09/13 02:41:13;;;;;;;0.00;0.00;;;13.30;99.90;;;;;;5040707;28;20217;-77
2022/09/13 02:43:45;;;;;;;0.10;0.10;;;13.40;99.90;;;;;;5056688;28;20264;-77
2022/09/13 02:46:36;;;;;;;0.00;0.00;;;13.40;99.90;;;;;;5056602;28;20578;-77
2022/09/13 02:49:15;;;;;;;0.00;0.00;;;13.40;99.90;;;;;;5024369;28;20203;-77
2022/09/13 02:51:51;;;;;;;0.10;0.10;;;13.40;99.90;;;;;;5023552;28;20213;-77
2022/09/13 02:54:25;;;;;;;0.00;0.00;;;13.50;99.90;;;;;;5041071;28;20217;-77
2022/09/13 02:56:59;;;;;;;0.00;0.00;;;13.40;99.90;;;;;;5043677;28;20431;-77
2022/09/13 02:59:27;;;;;;;0.00;0.00;;;13.40;99.90;;;;;;5044469;28;20680;-77
2022/09/13 03:02:01;;;;;;;0.00;0.00;;;13.40;99.90;;;;;;5064891;28;20207;-77
2022/09/13 03:04:33;;;;;;;0.10;0.10;;;13.30;99.90;;;;;;5062529;28;20197;-77
2022/09/13 03:07:03;;;;;;;0.00;0.00;;;13.40;99.90;;;;;;5058540;28;20207;-77
2022/09/13 03:09:32;;;;;;;0.10;0.10;;;13.40;99.90;;;;;;5060537;28;20788;-77
2022/09/13 03:12:22;;;;;;;0.00;0.00;;;13.40;99.90;;;;;;5059914;28;20217;-77
2022/09/13 03:14:56;;;;;;;0.00;0.00;;;13.40;99.90;;;;;;5058578;28;20305;-77
2022/09/13 03:17:39;;;;;;;0.10;0.10;;;13.40;99.90;;;;;;5042858;28;20199;-77
2022/09/13 03:20:14;;;;;;;0.10;0.10;;;13.40;99.90;;;;;;5056446;28;20229;-77
2022/09/13 03:23:17;;;;;;;0.10;0.10;;;13.30;99.90;;;;;;5061549;28;20206;-77
2022/09/13 03:26:02;;;;;;;0.00;0.00;;;13.30;99.90;;;;;;5033797;28;20285;-77
2022/09/13 03:28:39;;;;;;;0.10;0.10;;;13.30;99.90;;;;;;5041963;28;20234;-77
2022/09/13 03:31:12;;;;;;;0.00;0.00;;;13.30;99.90;;;;;;5037126;28;20195;-77
2022/09/13 03:33:47;;;;;;;0.00;0.00;;;13.30;99.90;;;;;;5039709;28;20198;-77
2022/09/13 03:36:24;;;;;;;0.00;0.00;;;13.30;99.90;;;;;;5048132;28;20281;-77
2022/09/13 03:38:58;;;;;;;0.10;0.10;;;13.20;99.90;;;;;;5048407;28;20669;-77
2022/09/13 03:41:30;;;;;;;0.00;0.00;;;13.20;99.90;;;;;;5039125;28;20756;-76
2022/09/13 03:44:02;;;;;;;0.10;0.10;;;13.20;99.90;;;;;;5045942;28;20257;-76
2022/09/13 03:46:33;;;;;;;0.10;0.10;;;13.20;99.90;;;;;;5056691;28;20252;-77
2022/09/13 03:49:04;;;;;;;0.00;0.00;;;13.20;99.90;;;;;;5055054;28;20210;-77
2022/09/13 03:51:34;;;;;;;0.10;0.10;;;13.20;99.90;;;;;;5035376;28;20805;-77
2022/09/13 03:54:06;;;;;;;0.10;0.10;;;13.10;99.90;;;;;;5053777;28;20225;-77
2022/09/13 03:56:34;;;;;;;0.10;0.10;;;13.10;99.90;;;;;;5059368;28;20689;-77
2022/09/13 03:59:02;;;;;;;0.00;0.00;;;13.20;99.90;;;;;;5054980;28;20214;-77
2022/09/13 04:01:30;;;;;;;0.00;0.00;;;13.20;99.90;;;;;;5053601;28;20194;-77
2022/09/13 04:03:58;;;;;;;0.10;0.10;;;13.20;99.90;;;;;;5044800;28;20214;-77
2022/09/13 04:06:26;;;;;;;0.10;0.10;;;13.20;99.90;;;;;;5039416;28;20214;-76
2022/09/13 04:08:55;;;;;;;0.10;0.10;;;13.20;99.90;;;;;;5053067;28;20727;-77
2022/09/13 04:11:23;;;;;;;0.10;0.10;;;13.20;99.90;;;;;;5053338;28;20210;-77
2022/09/13 04:13:51;;;;;;;0.10;0.10;;;13.20;99.90;;;;;;5035686;28;20256;-77
2022/09/13 04:16:19;;;;;;;0.00;0.00;;;13.20;99.90;;;;;;5049061;28;20229;-76
2022/09/13 04:18:47;;;;;;;0.10;0.10;;;13.30;99.90;;;;;;5022183;28;20305;-76
2022/09/13 04:21:15;;;;;;;0.00;0.00;;;13.20;99.90;;;;;;5031518;28;20211;-76
2022/09/13 04:23:43;;;;;;;0.10;0.10;;;13.30;99.90;;;;;;5022360;28;20226;-77
2022/09/13 04:26:12;;;;;;;0.00;0.00;;;13.20;99.90;;;;;;5035414;28;20301;-77
2022/09/13 04:28:40;;;;;;;0.00;0.00;;;13.30;99.90;;;;;;5039157;28;20648;-77
2022/09/13 04:31:08;;;;;;;0.00;0.00;;;13.20;99.90;;;;;;5026259;28;20199;-77
2022/09/13 04:33:36;;;;;;;0.08;0.08;;;13.20;99.90;;;;;;5038661;28;20563;-77
2022/09/13 04:36:04;;;;;;;0.10;0.10;;;13.20;99.90;;;;;;5063300;28;20230;-77
2022/09/13 04:38:32;;;;;;;0.00;0.00;;;13.20;99.90;;;;;;5061502;28;20206;-77
2022/09/13 04:41:01;;;;;;;0.10;0.10;;;13.20;99.90;;;;;;5048374;28;20218;-77
2022/09/13 04:43:30;;;;;;;0.10;0.10;;;13.20;99.90;;;;;;5064678;28;20629;-77
2022/09/13 04:46:00;;;;;;;0.00;0.00;;;13.20;99.90;;;;;;5063511;28;20213;-76
2022/09/13 04:48:28;;;;;;;0.00;0.00;;;13.20;99.90;;;;;;5058578;28;20226;-77
2022/09/13 04:51:03;;;;;;;0.00;0.00;;;13.20;99.90;;;;;;5064408;28;20239;-77
2022/09/13 04:53:31;;;;;;;0.00;0.00;;;13.20;99.90;;;;;;5061364;28;20200;-77
2022/09/13 04:56:01;;;;;;;0.10;0.10;;;13.10;99.90;;;;;;5064384;28;20232;-77
2022/09/13 04:58:31;;;;;;;0.00;0.00;;;13.20;99.90;;;;;;5062086;28;20202;-78
2022/09/13 05:01:01;;;;;;;0.00;0.00;;;13.20;99.90;;;;;;5063642;28;20225;-77
2022/09/13 05:03:30;;;;;;;0.08;0.08;;;13.20;99.90;;;;;;5063354;28;20206;-77
2022/09/13 05:06:02;;;;;;;0.10;0.10;;;13.10;99.90;;;;;;5061453;28;20214;-77
2022/09/13 05:08:30;;;;;;;0.00;0.00;;;13.00;99.90;;;;;;5061221;28;20194;-77
2022/09/13 05:10:59;;;;;;;0.00;0.00;;;13.00;99.90;;;;;;5051555;28;20256;-77
2022/09/13 05:13:27;;;;;;;0.00;0.00;;;13.10;99.90;;;;;;5048632;28;20206;-77
2022/09/13 05:15:57;;;;;;;0.00;0.00;;;13.10;99.90;;;;;;5035785;28;20570;-77
2022/09/13 05:18:26;;;;;;;0.10;0.10;;;13.10;99.90;;;;;;5036200;28;20611;-77
2022/09/13 05:21:04;;;;;;;0.10;0.10;;;13.20;99.90;;;;;;5042088;28;20194;-77
2022/09/13 05:23:32;;;;;;;0.10;0.10;;;13.20;99.90;;;;;;5041888;28;20581;-78
2022/09/13 05:26:02;;;;;;;0.00;0.00;;;13.20;99.90;;;;;;5048638;28;20226;-78
2022/09/13 05:28:31;;;;;;;0.10;0.10;;;13.20;99.90;;;;;;5042035;28;20612;-79
2022/09/13 05:31:03;;;;;;;0.00;0.00;;;13.20;99.90;;;;;;5040351;28;20229;-78
2022/09/13 05:33:34;;;;;;;0.10;0.10;;;13.30;99.90;;;;;;5056452;28;20255;-79
2022/09/13 05:36:02;;;;;;;0.00;0.00;;;13.30;99.90;;;;;;5066604;28;20222;-78
2022/09/13 05:38:30;;;;;;;0.00;0.00;;;13.30;99.90;;;;;;5049604;28;20202;-78
2022/09/13 05:41:00;;;;;;;0.00;0.00;;;13.30;99.90;;;;;;5046581;28;20229;-78
2022/09/13 05:43:31;;;;;;;0.00;0.00;;;13.40;99.90;;;;;;5057075;28;20596;-78
2022/09/13 05:46:04;;;;;;;0.10;0.10;;;13.50;99.90;;;;;;5039387;28;20273;-78
2022/09/13 05:48:32;;;;;;;0.10;0.10;;;13.50;99.90;;;;;;5036545;28;20218;-78
2022/09/13 05:51:09;;;;;;;0.00;0.00;;;13.60;99.90;;;;;;5020207;28;20214;-79
2022/09/13 05:53:38;;;;;;;0.10;0.10;;;13.60;99.90;;;;;;5041705;28;20198;-78
2022/09/13 05:56:06;;;;;;;0.08;0.08;;;13.70;99.90;;;;;;5051599;28;20211;-78
2022/09/13 05:58:38;;;;;;;0.10;0.10;;;13.60;99.90;;;;;;5050395;28;20184;-78
2022/09/13 06:01:07;;;;;;;0.10;0.10;;;13.70;99.90;;;;;;5030565;28;20203;-78
2022/09/13 06:03:36;;;;;;;0.00;0.00;;;13.70;99.90;;;;;;5035507;28;20199;-78
2022/09/13 06:06:05;;;;;;;0.00;0.00;;;13.80;99.90;;;;;;5036072;28;20222;-78
2022/09/13 06:08:34;;;;;;;0.00;0.00;;;13.90;99.90;;;;;;5036299;28;20218;-78
2022/09/13 06:11:04;;;;;;;0.10;0.10;;;13.90;99.90;;;;;;5018338;28;20294;-78
2022/09/13 06:13:33;;;;;;;0.10;0.10;;;14.00;99.90;;;;;;5036086;28;20257;-79
2022/09/13 06:16:02;;;;;;;0.00;0.00;;;14.00;99.90;;;;;;5017734;28;20254;-78
2022/09/13 06:18:32;;;;;;;0.10;0.10;;;14.10;99.90;;;;;;5035355;28;20195;-79
2022/09/13 06:21:02;;;;;;;0.00;0.00;;;14.10;99.90;;;;;;5022969;28;20257;-78
2022/09/13 06:23:30;;;;;;;0.10;0.10;;;14.20;99.90;;;;;;5035496;28;20609;-78
2022/09/13 06:26:03;;;;;;;0.00;0.00;;;14.20;99.90;;;;;;5018005;28;20231;-79
2022/09/13 06:28:31;;;;;;;0.00;0.00;;;14.30;99.90;;;;;;5035401;28;20199;-78
2022/09/13 06:31:05;;;;;;;0.00;0.00;;;14.30;99.90;;;;;;5035158;28;20199;-78
2022/09/13 06:33:36;;;;;;;0.00;0.00;;;14.40;99.90;;;;;;5034153;28;20262;-78
2022/09/13 06:36:06;;;;;;;0.00;0.00;;;14.40;99.90;;;;;;5036444;28;20713;-78
2022/09/13 06:38:34;;;;;;;0.00;0.00;;;14.40;99.90;;;;;;5049443;28;20798;-77
2022/09/13 06:41:07;;;;;;;0.10;0.10;;;14.50;99.90;;;;;;5052736;28;20195;-75
2022/09/13 06:43:35;;;;;;;0.00;0.00;;;14.60;99.90;;;;;;5033898;28;20579;-75
2022/09/13 06:46:06;;;;;;;0.00;0.00;;;14.60;99.90;;;;;;5051388;28;20265;-76
2022/09/13 06:48:37;;;;;;;0.05;0.05;;;14.60;99.90;;;;;;5051913;28;20281;-76
2022/09/13 06:51:07;;;;;;;0.03;0.03;;;14.70;99.90;;;;;;5038169;28;20258;-75
2022/09/13 06:53:36;;;;;;;0.10;0.10;;;14.70;99.90;;;;;;5048265;28;20252;-76
2022/09/13 06:56:06;;;;;;;0.10;0.10;;;14.80;99.90;;;;;;5058359;28;20230;-76
2022/09/13 06:58:35;;;;;;;0.00;0.00;;;14.80;99.90;;;;;;5052010;28;20250;-76
2022/09/13 07:01:12;;;;;;;0.00;0.00;;;14.90;99.90;;;;;;5038984;28;20202;-76
2022/09/13 07:03:43;;;;;;;0.00;0.00;;;15.00;99.90;;;;;;5037632;28;20226;-76
2022/09/13 07:06:12;;;;;;;0.00;0.00;;;15.10;99.90;;;;;;5036164;28;20265;-77
2022/09/13 07:08:41;;;;;;;0.00;0.00;;;15.20;99.90;;;;;;5031725;28;20289;-76
2022/09/13 07:11:11;;;;;;;0.10;0.10;;;15.30;99.90;;;;;;5031799;28;20278;-75
2022/09/13 07:13:39;;;;;;;0.00;0.00;;;15.30;99.90;;;;;;5031758;28;20278;-76
2022/09/13 07:16:09;;;;;;;0.00;0.00;;;15.40;99.90;;;;;;5031986;28;20210;-76
2022/09/13 07:18:38;;;;;;;0.00;0.00;;;15.50;99.90;;;;;;5031963;28;20223;-76
2022/09/13 07:21:09;;;;;;;0.00;0.00;;;15.50;99.90;;;;;;5031814;28;20222;-75
2022/09/13 07:23:39;;;;;;;0.00;0.00;;;15.60;99.90;;;;;;5031460;28;20207;-77
2022/09/13 07:26:07;;;;;;;0.00;0.00;;;15.80;99.90;;;;;;5031093;28;20238;-75
2022/09/13 07:28:38;;;;;;;0.00;0.00;;;15.90;99.90;;;;;;5038896;28;20217;-77
2022/09/13 07:31:08;;;;;;;0.00;0.00;;;16.00;99.90;;;;;;5051575;28;20206;-76
2022/09/13 07:33:37;;;;;;;0.00;0.00;;;16.10;99.90;;;;;;5032859;28;20210;-76
2022/09/13 07:36:07;;;;;;;0.00;0.00;;;16.30;99.90;;;;;;5050762;28;20218;-76
2022/09/13 07:38:36;;;;;;;0.00;0.00;;;16.30;99.90;;;;;;5046047;28;20707;-76
2022/09/13 07:41:07;;;;;;;0.00;0.00;;;16.40;99.90;;;;;;5033705;28;20217;-77
2022/09/13 07:43:36;;;;;;;0.00;0.00;;;16.50;99.90;;;;;;5052394;28;20230;-76
2022/09/13 07:46:06;;;;;;;0.00;0.00;;;16.50;99.90;;;;;;5052716;28;20241;-75
2022/09/13 07:48:35;;;;;;;0.00;0.00;;;16.60;99.90;;;;;;5053080;28;20581;-76
2022/09/13 07:51:04;;;;;;;0.00;0.00;;;16.70;99.90;;;;;;5053367;28;20592;-76
2022/09/13 07:53:35;;;;;;;0.00;0.00;;;16.80;99.90;;;;;;5053582;28;20202;-77
2022/09/13 07:56:04;;;;;;;0.00;0.00;;;16.80;99.90;;;;;;5054023;28;20630;-75
2022/09/13 07:58:33;;;;;;;0.00;0.00;;;16.90;99.90;;;;;;5054999;28;20214;-76
2022/09/13 08:01:05;;;;;;;0.00;0.00;;;16.90;99.90;;;;;;5055316;28;20203;-76
2022/09/13 08:03:33;;;;;;;0.00;0.00;;;17.00;99.90;;;;;;5055312;28;20198;-77
2022/09/13 08:06:01;;;;;;;0.00;0.00;;;17.10;99.90;;;;;;5055112;28;20221;-75
2022/09/13 08:08:30;;;;;;;0.00;0.00;;;17.10;99.90;;;;;;5051916;28;20202;-76
2022/09/13 08:11:00;;;;;;;0.00;0.00;;;17.10;99.90;;;;;;5054798;28;20613;-76
2022/09/13 08:13:28;;;;;;;0.00;0.00;;;17.10;99.90;;;;;;5054511;28;20584;-76
2022/09/13 08:15:56;;;;;;;0.00;0.00;;;17.10;99.90;;;;;;5054967;28;20265;-76
2022/09/13 08:18:24;;;;;;;0.00;0.00;;;17.20;99.90;;;;;;5055014;28;20581;-75
2022/09/13 08:20:56;;;;;;;0.00;0.00;;;17.20;99.90;;;;;;5055164;28;20195;-75
2022/09/13 08:23:24;;;;;;;0.00;0.00;;;17.20;99.90;;;;;;5054765;28;20236;-77
2022/09/13 08:25:52;;;;;;;0.00;0.00;;;17.20;99.90;;;;;;5055220;28;20724;-76
2022/09/13 08:28:22;;;;;;;0.00;0.00;;;17.20;99.90;;;;;;5055795;28;20198;-77
2022/09/13 08:30:54;;;;;;;0.00;0.00;;;17.20;99.90;;;;;;5043832;28;20237;-76
2022/09/13 08:33:22;;;;;;;0.00;0.00;;;17.20;99.90;;;;;;5061953;28;20195;-76
2022/09/13 08:35:51;;;;;;;0.00;0.00;;;17.20;99.90;;;;;;5058932;28;20272;-77
2022/09/13 08:38:19;;;;;;;0.00;0.00;;;17.20;99.90;;;;;;5054541;28;20681;-76
2022/09/13 08:40:50;;;;;;;0.00;0.00;;;17.10;99.90;;;;;;5055176;28;20230;-76
2022/09/13 08:43:29;;;;;;;0.00;0.00;;;17.10;99.90;;;;;;5054437;28;20202;-76
2022/09/13 08:46:02;;;;;;;0.00;0.00;;;17.10;99.90;;;;;;5054634;28;20218;-76
2022/09/13 08:48:34;;;;;;;0.00;0.00;;;17.20;99.90;;;;;;5037267;28;20668;-76
2022/09/13 08:51:07;;;;;;;0.00;0.00;;;17.20;99.90;;;;;;5054868;28;20257;-77
2022/09/13 08:53:43;;;;;;;0.00;0.00;;;17.30;99.90;;;;;;5054388;28;20191;-77
2022/09/13 08:56:13;;;;;;;0.00;0.00;;;17.30;99.90;;;;;;5054390;28;20264;-76
2022/09/13 08:58:59;;;;;;;0.00;0.00;;;17.40;99.90;;;;;;5054014;28;20226;-76
2022/09/13 09:01:44;;;;;;;0.00;0.00;;;17.50;99.90;;;;;;5054447;28;20248;-76
2022/09/13 09:04:19;;;;;;;0.00;0.00;;;17.50;99.90;;;;;;5054406;28;20724;-76
2022/09/13 09:06:47;;;;;;;0.00;0.00;;;17.50;99.90;;;;;;5054160;28;20198;-75
2022/09/13 09:09:18;;;;;;;0.00;0.00;;;17.50;99.90;;;;;;5053236;28;20199;-75
2022/09/13 09:11:51;;;;;;;0.00;0.00;;;17.50;99.90;;;;;;5054220;28;20646;-76
2022/09/13 09:14:25;;;;;;;0.00;0.00;;;17.60;99.90;;;;;;5053778;28;20661;-77
2022/09/13 09:16:58;;;;;;;0.00;0.00;;;17.60;99.90;;;;;;5054221;28;20228;-76
2022/09/13 09:19:33;;;;;;;0.00;0.00;;;17.70;99.90;;;;;;5053711;28;20697;-76
2022/09/13 09:22:04;;;;;;;0.00;0.00;;;17.80;99.90;;;;;;5053580;28;20193;-76
2022/09/13 09:24:36;;;;;;;0.00;0.00;;;17.90;99.90;;;;;;5052828;28;20256;-76
2022/09/13 09:27:13;;;;;;;0.00;0.00;;;17.90;99.90;;;;;;5053689;28;20288;-76
2022/09/13 09:29:43;;;;;;;0.00;0.00;;;18.00;99.90;;;;;;5053575;28;20198;-76
2022/09/13 09:32:25;;;;;;;0.00;0.00;;;18.00;99.90;;;;;;5053738;28;20195;-77
2022/09/13 09:35:07;;;;;;;0.00;0.00;;;18.10;99.90;;;;;;5053402;28;20248;-77
2022/09/13 09:37:37;;;;;;;0.00;0.00;;;18.20;99.90;;;;;;5059795;28;20248;-77
2022/09/13 09:40:08;;;;;;;0.00;0.00;;;18.30;99.90;;;;;;5062389;28;20534;-76
2022/09/13 09:42:42;;;;;;;0.00;0.00;;;18.30;99.90;;;;;;5061661;28;20208;-76
2022/09/13 09:45:26;;;;;;;0.00;0.00;;;18.50;99.90;;;;;;5054704;28;20222;-76
2022/09/13 09:47:56;;;;;;;0.00;0.00;;;18.60;99.90;;;;;;5053144;28;20198;-76
2022/09/13 09:50:27;;;;;;;0.00;0.00;;;18.80;99.90;;;;;;5052906;28;20202;-76
2022/09/13 09:53:00;;;;;;;0.00;0.00;;;18.90;99.90;;;;;;5053374;28;20201;-76
2022/09/13 09:55:30;;;;;;;0.00;0.00;;;19.00;99.90;;;;;;5053512;28;20752;-75
2022/09/13 09:57:59;;;;;;;0.10;0.10;;;19.20;99.90;;;;;;5052702;28;20199;-76
2022/09/13 10:00:30;;;;;;;0.00;0.00;;;19.20;99.90;;;;;;5053041;28;20738;-76
2022/09/13 10:03:01;;;;;;;0.00;0.00;;;19.40;99.90;;;;;;5035374;28;20560;-76
2022/09/13 10:05:31;;;;;;;0.00;0.00;;;19.50;99.90;;;;;;5052580;28;20206;-76
2022/09/13 10:08:01;;;;;;;0.00;0.00;;;19.60;99.90;;;;;;5052628;28;20232;-76
2022/09/13 10:10:36;;;;;;;0.00;0.00;;;19.80;99.90;;;;;;5035063;28;20199;-75
2022/09/13 10:13:06;;;;;;;0.00;0.00;;;19.90;99.90;;;;;;5053004;28;20224;-75
2022/09/13 10:15:36;;;;;;;0.00;0.00;;;19.90;99.90;;;;;;5052720;28;20806;-75
2022/09/13 10:18:13;;;;;;;0.00;0.00;;;20.10;99.90;;;;;;5052670;28;20198;-75
2022/09/13 10:21:03;;;;;;;0.00;0.00;;;20.20;99.90;;;;;;5051662;28;20195;-75
2022/09/13 10:23:33;;;;;;;0.00;0.00;;;20.20;99.90;;;;;;5034555;28;20210;-76
2022/09/13 10:26:05;;;;;;;0.00;0.00;;;20.20;99.90;;;;;;5052365;28;20222;-76
2022/09/13 10:28:36;;;;;;;0.00;0.00;;;20.20;99.90;;;;;;5052298;28;20245;-75
2022/09/13 10:31:09;;;;;;;0.00;0.00;;;20.20;99.90;;;;;;5052301;28;20241;-76
2022/09/13 10:33:51;;;;;;;0.00;0.00;;;20.20;99.90;;;;;;5052368;28;20194;-75
2022/09/13 10:36:23;;;;;;;0.00;0.00;;;20.20;99.90;;;;;;5052088;28;20218;-76
2022/09/13 10:39:16;;;;;;;0.00;0.00;;;20.20;99.90;;;;;;5052035;28;20221;-77
2022/09/13 10:41:51;;;;;;;0.00;0.00;;;20.30;99.90;;;;;;5052236;28;20199;-76
2022/09/13 10:44:32;;;;;;;0.00;0.00;;;20.30;99.90;;;;;;5052329;28;20194;-76
2022/09/13 10:47:04;;;;;;;0.00;0.00;;;20.40;99.90;;;;;;5052366;28;20245;-76
2022/09/13 10:49:38;;;;;;;0.00;0.00;;;20.40;99.90;;;;;;5052703;28;20190;-76
2022/09/13 10:52:28;;;;;;;0.00;0.00;;;20.40;99.90;;;;;;5060794;28;20202;-76
2022/09/13 10:54:56;;;;;;;0.00;0.00;;;20.50;99.90;;;;;;5061806;28;20245;-76
2022/09/13 10:57:33;;;;;;;0.00;0.00;;;20.60;99.90;;;;;;5061739;28;20225;-77
2022/09/13 11:00:01;;;;;;;0.00;0.00;;;20.60;99.90;;;;;;5052279;28;20249;-75
2022/09/13 11:02:43;;;;;;;0.00;0.00;;;20.40;99.90;;;;;;5052189;28;20256;-76
2022/09/13 11:05:20;;;;;;;0.00;0.00;;;20.40;99.90;;;;;;5051223;28;20249;-76
2022/09/13 11:08:17;;;;;;;0.00;0.00;;;20.40;99.90;;;;;;5052351;28;20206;-77
2022/09/13 11:10:55;;;;;;;0.00;0.00;;;20.40;99.90;;;;;;5051451;28;20179;-77
2022/09/13 11:13:34;;;;;;;0.00;0.00;;;20.50;99.90;;;;;;5051437;28;20189;-76
2022/09/13 11:16:20;;;;;;;0.00;0.00;;;20.80;99.90;;;;;;5051749;28;20218;-76
2022/09/13 11:19:07;;;;;;;0.00;0.00;;;21.00;99.90;;;;;;5051530;28;20721;-75
2022/09/13 11:21:45;;;;;;;0.00;0.00;;;21.10;99.90;;;;;;5051780;28;20202;-75
2022/09/13 11:24:29;;;;;;;0.00;0.00;;;21.10;99.90;;;;;;5052115;28;20198;-76
2022/09/13 11:27:03;;;;;;;0.00;0.00;;;21.10;99.90;;;;;;5052273;28;20190;-76
2022/09/13 11:29:45;;;;;;;0.00;0.00;;;21.20;99.90;;;;;;5041914;28;20207;-77
2022/09/13 11:32:27;;;;;;;0.00;0.00;;;21.50;99.90;;;;;;5032485;28;20206;-75
2022/09/13 11:35:11;;;;;;;0.00;0.00;;;21.70;99.90;;;;;;5051634;28;20238;-75
2022/09/13 11:37:50;;;;;;;0.00;0.00;;;21.90;99.90;;;;;;5050857;28;20216;-76
2022/09/13 11:40:30;;;;;;;0.00;0.00;;;21.90;99.90;;;;;;5051179;28;20233;-76
2022/09/13 11:43:13;;;;;;;0.00;0.00;;;22.10;99.90;;;;;;5051618;28;20740;-76
2022/09/13 11:45:45;;;;;;;0.00;0.00;;;22.20;99.90;;;;;;5051421;28;20222;-76
2022/09/13 11:48:30;;;;;;;0.00;0.00;;;22.30;99.90;;;;;;5051549;28;20198;-76
2022/09/13 11:51:05;;;;;;;0.00;0.00;;;22.40;99.90;;;;;;5052357;28;20191;-76
2022/09/13 11:53:54;;;;;;;0.00;0.00;;;22.40;99.90;;;;;;5051539;28;20613;-76
2022/09/13 11:56:27;;;;;;;0.00;0.00;;;22.50;99.90;;;;;;5051202;28;20214;-76
2022/09/13 11:59:10;;;;;;;0.00;0.00;;;22.60;99.90;;;;;;5051556;28;20724;-76
2022/09/13 12:01:45;;;;;;;0.00;0.00;;;22.70;99.90;;;;;;5051781;28;20255;-77
2022/09/13 12:04:18;;;;;;;0.00;0.00;;;22.80;99.90;;;;;;5051733;28;20223;-76
2022/09/13 12:06:53;;;;;;;0.00;0.00;;;22.70;99.90;;;;;;5051710;28;20198;-76
2022/09/13 12:09:25;;;;;;;0.00;0.00;;;22.70;99.90;;;;;;5032808;28;20202;-76
2022/09/13 12:11:58;;;;;;;0.00;0.00;;;22.70;99.90;;;;;;5052387;28;20221;-75
2022/09/13 12:14:30;;;;;;;0.00;0.00;;;22.50;99.90;;;;;;5051688;28;20198;-75
2022/09/13 12:17:06;;;;;;;0.00;0.00;;;22.50;99.90;;;;;;5052605;28;20535;-76
2022/09/13 12:19:42;;;;;;;0.00;0.00;;;22.50;99.90;;;;;;5033891;28;20264;-75
2022/09/13 12:22:13;;;;;;;0.00;0.00;;;22.50;99.90;;;;;;5051609;28;20194;-75
2022/09/13 12:24:46;;;;;;;0.00;0.00;;;22.70;99.90;;;;;;5051630;28;20269;-75
2022/09/13 12:27:24;;;;;;;0.00;0.00;;;22.70;99.90;;;;;;5051068;28;20202;-76
2022/09/13 12:29:54;;;;;;;0.00;0.00;;;22.70;99.90;;;;;;5052157;28;20253;-75
2022/09/13 12:32:23;;;;;;;0.00;0.00;;;22.70;99.90;;;;;;5054428;28;20198;-75
2022/09/13 12:34:56;;;;;;;0.00;0.00;;;22.70;99.90;;;;;;5055844;28;20273;-76
2022/09/13 12:37:49;;;;;;;0.00;0.00;;;22.70;99.90;;;;;;5051367;28;20191;-75
2022/09/13 12:40:38;;;;;;;0.00;0.00;;;22.80;99.90;;;;;;5051143;28;20754;-76
2022/09/13 12:43:29;;;;;;;0.00;0.00;;;22.80;99.90;;;;;;5051920;28;20198;-74
2022/09/13 12:46:34;;;;;;;0.00;0.00;;;22.90;99.90;;;;;;5050575;28;20280;-75
2022/09/13 12:49:32;;;;;;;0.00;0.00;;;22.90;99.90;;;;;;5055255;28;20199;-75
2022/09/13 12:52:16;;;;;;;0.00;0.00;;;22.80;99.90;;;;;;5048824;28;20218;-75
2022/09/13 12:55:36;;;;;;;0.00;0.00;;;22.70;99.90;;;;;;5043410;28;20222;-76
2022/09/13 12:58:34;;;;;;;0.00;0.00;;;22.70;99.90;;;;;;5034572;28;20257;-75
2022/09/13 13:01:10;;;;;;;0.00;0.00;;;22.60;99.90;;;;;;5034895;28;20677;-75
2022/09/13 13:03:49;;;;;;;0.00;0.00;;;22.60;99.90;;;;;;5035110;28;20198;-75
2022/09/13 13:06:28;;;;;;;0.00;0.00;;;22.60;99.90;;;;;;5034970;28;20234;-75
2022/09/13 13:09:00;;;;;;;0.00;0.00;;;22.60;99.90;;;;;;5034673;28;20226;-76
2022/09/13 13:11:40;;;;;;;0.00;0.00;;;22.60;99.90;;;;;;5034372;28;20538;-74
2022/09/13 13:14:29;;;;;;;0.00;0.00;;;22.50;99.90;;;;;;5034620;28;20221;-76
2022/09/13 13:17:31;;;;;;;0.00;0.00;;;22.50;99.90;;;;;;5017558;28;20674;-75
2022/09/13 13:19:59;;;;;;;0.00;0.00;;;22.50;99.90;;;;;;5034193;28;20202;-74